Portada
METAR-TAF:

METAR-TAF

Aeroports :

Kushiro, Japó

latitud: 43-02N, longitud: 144-12E, altitud: 95 m

Observació

L'informe es va fer fa 33 minuts, a les 13:00 UTC
Vent 16 kt del Sud/Sud-Oest
Temperatura 11°C
Humitat 87%
Pressió 1010 hPa
Visibilitat 10 km o més

METAR: RJCK 221300Z AUTO 21016KT 9999 NSC 11/09 Q1010

Hora: 22:33 (13:33 UTC)

Pronòstic

L'informe es va fer fa 2 hores i 25 minuts, a les 11:08 UTC
Pronòstic vàlid del 22 a les 12 UTC al 23 a les 18 UTC
Vent 15 kt del Sud/Sud-Oest
Visibilitat 10 km o més
Escasses núvols a una alçada de 3000 ft
Evolucionant progressivament
l' 23 a les 12 UTC al 23 a les 15 UTC
Vent 6 kt del Nord

TAF: RJCK 221108Z 2212/2318 21015KT 9999 FEW030 BECMG 2312/2315 01006KT

Observacions i pronòstics meteorològics de més de 4000 aeroports (METAR i TAF).

Les estacions disponibles són els punts grocs i vermells al mapa.

Posi el ratolí al punt desitjat per veure el nom de l'estació.

Feu clic per veure les observacions i els pronòstics meteorològics.

Per canviar el mapa: feu clic els botons verds amb una creu de color negre per apropar; al botó verd amb un guió per allunyar la imatge; o en les fletxes verdes per a mapes adjacents.


METAR-TAF: